UAL2173 KBOI-KDEN
Flight info
| Callsign | UAL2173 |
|---|---|
| Flight time | 1h 21m |
| Altitude | 37000 |
| Route | ROARR AMFAL MJANE FLATI5 |
| Aircraft | A320/M-SDE3FGHIRWY/LB1 |
Departure
| Time | 2026-05-09 03:44 |
|---|---|
| Airport | Boise Air Terminal/Gowen Field (KBOI) |
Arrival
| Time | 2026-05-09 05:05 |
|---|---|
| Airport | Denver International Airport (KDEN) |
| Time | Latitude | Longitude | Altitude | Speed | Heading |
|---|---|---|---|---|---|
| 2026-05-09 03:21 | 43.56715 | -116.22014 | 2854 ft | 0 kts | 31° |
| 2026-05-09 03:34 | 43.56711 | -116.22017 | 2854 ft | 2 kts | 31° |
| 2026-05-09 03:34 | 43.56695 | -116.22030 | 2852 ft | 3 kts | 32° |
| 2026-05-09 03:35 | 43.56678 | -116.22045 | 2852 ft | 3 kts | 43° |
| 2026-05-09 03:35 | 43.56667 | -116.22064 | 2854 ft | 3 kts | 85° |
| 2026-05-09 03:35 | 43.56667 | -116.22075 | 2852 ft | 0 kts | 113° |
| 2026-05-09 03:38 | 43.56666 | -116.22072 | 2852 ft | 2 kts | 113° |
| 2026-05-09 03:38 | 43.56652 | -116.22030 | 2854 ft | 8 kts | 115° |
| 2026-05-09 03:38 | 43.56618 | -116.21937 | 2855 ft | 13 kts | 117° |
| 2026-05-09 03:39 | 43.56574 | -116.21816 | 2854 ft | 15 kts | 115° |
| 2026-05-09 03:39 | 43.56507 | -116.21724 | 2855 ft | 14 kts | 162° |
| 2026-05-09 03:39 | 43.56442 | -116.21640 | 2857 ft | 14 kts | 110° |
| 2026-05-09 03:39 | 43.56403 | -116.21522 | 2860 ft | 13 kts | 115° |
| 2026-05-09 03:40 | 43.56369 | -116.21422 | 2865 ft | 10 kts | 115° |
| 2026-05-09 03:40 | 43.56340 | -116.21337 | 2867 ft | 10 kts | 115° |
| 2026-05-09 03:40 | 43.56307 | -116.21240 | 2868 ft | 13 kts | 115° |
| 2026-05-09 03:40 | 43.56264 | -116.21114 | 2871 ft | 16 kts | 115° |
| 2026-05-09 03:41 | 43.56216 | -116.20975 | 2872 ft | 17 kts | 115° |
| 2026-05-09 03:41 | 43.56166 | -116.20865 | 2871 ft | 10 kts | 158° |
| 2026-05-09 03:41 | 43.56101 | -116.20892 | 2870 ft | 11 kts | 205° |
| 2026-05-09 03:41 | 43.56077 | -116.20907 | 2870 ft | 12 kts | 205° |
| 2026-05-09 03:42 | 43.55991 | -116.20962 | 2870 ft | 0 kts | 205° |
| 2026-05-09 03:42 | 43.55986 | -116.20964 | 2870 ft | 2 kts | 205° |
| 2026-05-09 03:42 | 43.55962 | -116.20980 | 2871 ft | 5 kts | 205° |
| 2026-05-09 03:43 | 43.55913 | -116.21011 | 2872 ft | 10 kts | 205° |
| 2026-05-09 03:43 | 43.55905 | -116.21054 | 2872 ft | 0 kts | 295° |
| 2026-05-09 03:43 | 43.55925 | -116.21111 | 2871 ft | 30 kts | 296° |
| 2026-05-09 03:43 | 43.56122 | -116.21679 | 2866 ft | 99 kts | 296° |
| 2026-05-09 03:44 | 43.56496 | -116.22771 | 2856 ft | 150 kts | 296° |
| 2026-05-09 03:44 | 43.57002 | -116.24234 | 3039 ft | 176 kts | 296° |
| 2026-05-09 03:44 | 43.57516 | -116.25720 | 3825 ft | 170 kts | 297° |
| 2026-05-09 03:44 | 43.58014 | -116.27214 | 4458 ft | 172 kts | 296° |
| 2026-05-09 03:45 | 43.58505 | -116.28736 | 4790 ft | 185 kts | 296° |
| 2026-05-09 03:45 | 43.59050 | -116.30462 | 4920 ft | 209 kts | 295° |
| 2026-05-09 03:45 | 43.59667 | -116.32409 | 5081 ft | 234 kts | 296° |
| 2026-05-09 03:45 | 43.60344 | -116.34576 | 5386 ft | 257 kts | 294° |
| 2026-05-09 03:46 | 43.60761 | -116.37009 | 6085 ft | 269 kts | 270° |
| 2026-05-09 03:46 | 43.60239 | -116.39506 | 6895 ft | 278 kts | 242° |
| 2026-05-09 03:46 | 43.58861 | -116.41414 | 7740 ft | 288 kts | 213° |
| 2026-05-09 03:46 | 43.56924 | -116.42172 | 8578 ft | 298 kts | 183° |
| 2026-05-09 03:47 | 43.54907 | -116.41467 | 9392 ft | 308 kts | 152° |
| 2026-05-09 03:47 | 43.53368 | -116.39403 | 10138 ft | 317 kts | 122° |
| 2026-05-09 03:47 | 43.52380 | -116.36556 | 10348 ft | 341 kts | 111° |
| 2026-05-09 03:47 | 43.51603 | -116.33349 | 10482 ft | 364 kts | 106° |
| 2026-05-09 03:48 | 43.50914 | -116.29900 | 10747 ft | 380 kts | 104° |
| 2026-05-09 03:48 | 43.50230 | -116.26339 | 11299 ft | 387 kts | 104° |
| 2026-05-09 03:48 | 43.49507 | -116.22734 | 11892 ft | 392 kts | 105° |
| 2026-05-09 03:48 | 43.48729 | -116.19106 | 12490 ft | 398 kts | 106° |
| 2026-05-09 03:49 | 43.47898 | -116.15443 | 13083 ft | 403 kts | 107° |
| 2026-05-09 03:49 | 43.47029 | -116.11745 | 13628 ft | 409 kts | 107° |
| 2026-05-09 03:49 | 43.46135 | -116.08005 | 14170 ft | 414 kts | 107° |
| 2026-05-09 03:49 | 43.45228 | -116.04227 | 14689 ft | 418 kts | 107° |
| 2026-05-09 03:50 | 43.44318 | -116.00410 | 15237 ft | 421 kts | 107° |
| 2026-05-09 03:50 | 43.43410 | -115.96563 | 15759 ft | 425 kts | 106° |
| 2026-05-09 03:50 | 43.42808 | -115.93997 | 16107 ft | 427 kts | 106° |
| 2026-05-09 03:50 | 43.41890 | -115.90088 | 16631 ft | 431 kts | 106° |
| 2026-05-09 03:51 | 43.40962 | -115.86148 | 17175 ft | 435 kts | 106° |
| 2026-05-09 03:51 | 43.40019 | -115.82173 | 17724 ft | 439 kts | 106° |
| 2026-05-09 03:51 | 43.38754 | -115.76847 | 18431 ft | 445 kts | 106° |
| 2026-05-09 03:51 | 43.38105 | -115.74110 | 18785 ft | 447 kts | 106° |
| 2026-05-09 03:52 | 43.37139 | -115.70041 | 19330 ft | 449 kts | 107° |
| 2026-05-09 03:52 | 43.36167 | -115.65958 | 19895 ft | 451 kts | 107° |
| 2026-05-09 03:52 | 43.35187 | -115.61855 | 20414 ft | 454 kts | 107° |
| 2026-05-09 03:52 | 43.34197 | -115.57725 | 20910 ft | 456 kts | 107° |
| 2026-05-09 03:53 | 43.33200 | -115.53573 | 21385 ft | 459 kts | 107° |
| 2026-05-09 03:53 | 43.32198 | -115.49397 | 21858 ft | 462 kts | 108° |
| 2026-05-09 03:53 | 43.31191 | -115.45199 | 22300 ft | 464 kts | 108° |
| 2026-05-09 03:53 | 43.30176 | -115.40983 | 22744 ft | 466 kts | 108° |
| 2026-05-09 03:54 | 43.29152 | -115.36750 | 23170 ft | 469 kts | 108° |
| 2026-05-09 03:54 | 43.28185 | -115.32467 | 23581 ft | 471 kts | 106° |
| 2026-05-09 03:54 | 43.27310 | -115.28126 | 23918 ft | 473 kts | 104° |
| 2026-05-09 03:54 | 43.26491 | -115.23745 | 24269 ft | 475 kts | 103° |
| 2026-05-09 03:55 | 43.25686 | -115.19332 | 24569 ft | 478 kts | 103° |
| 2026-05-09 03:55 | 43.24880 | -115.14961 | 24877 ft | 480 kts | 104° |
| 2026-05-09 03:55 | 43.24038 | -115.10521 | 25186 ft | 483 kts | 104° |
| 2026-05-09 03:55 | 43.23167 | -115.06061 | 25504 ft | 485 kts | 105° |
| 2026-05-09 03:56 | 43.22275 | -115.01590 | 25800 ft | 488 kts | 105° |
| 2026-05-09 03:56 | 43.21372 | -114.97098 | 26123 ft | 490 kts | 105° |
| 2026-05-09 03:56 | 43.20465 | -114.92587 | 26442 ft | 492 kts | 105° |
| 2026-05-09 03:56 | 43.19552 | -114.88051 | 26758 ft | 495 kts | 106° |
| 2026-05-09 03:57 | 43.18635 | -114.83495 | 27069 ft | 497 kts | 106° |
| 2026-05-09 03:57 | 43.17715 | -114.78920 | 27382 ft | 499 kts | 106° |
| 2026-05-09 03:57 | 43.16799 | -114.74344 | 27816 ft | 498 kts | 106° |
| 2026-05-09 03:57 | 43.15880 | -114.69763 | 28240 ft | 498 kts | 106° |
| 2026-05-09 03:58 | 43.14962 | -114.65199 | 28676 ft | 497 kts | 107° |
| 2026-05-09 03:58 | 43.14041 | -114.60637 | 29116 ft | 497 kts | 107° |
| 2026-05-09 03:58 | 43.13121 | -114.56089 | 29547 ft | 496 kts | 107° |
| 2026-05-09 03:58 | 43.12196 | -114.51537 | 29971 ft | 496 kts | 107° |
| 2026-05-09 03:59 | 43.11268 | -114.46994 | 30356 ft | 495 kts | 107° |
| 2026-05-09 03:59 | 43.10342 | -114.42462 | 30727 ft | 495 kts | 107° |
| 2026-05-09 03:59 | 43.09413 | -114.37930 | 31092 ft | 494 kts | 108° |
| 2026-05-09 03:59 | 43.08489 | -114.33410 | 31455 ft | 494 kts | 108° |
| 2026-05-09 04:00 | 43.07562 | -114.28886 | 31823 ft | 493 kts | 108° |
| 2026-05-09 04:00 | 43.06633 | -114.24371 | 32231 ft | 492 kts | 108° |
| 2026-05-09 04:00 | 43.05704 | -114.19874 | 32635 ft | 491 kts | 108° |
| 2026-05-09 04:00 | 43.04773 | -114.15381 | 33036 ft | 490 kts | 108° |
| 2026-05-09 04:01 | 43.03842 | -114.10903 | 33435 ft | 490 kts | 108° |
| 2026-05-09 04:01 | 43.02910 | -114.06424 | 33827 ft | 489 kts | 108° |
| 2026-05-09 04:01 | 43.01982 | -114.01956 | 34151 ft | 488 kts | 108° |
| 2026-05-09 04:01 | 43.01053 | -113.97496 | 34452 ft | 489 kts | 108° |
| 2026-05-09 04:02 | 43.00130 | -113.93081 | 34695 ft | 489 kts | 108° |
| 2026-05-09 04:02 | 42.99184 | -113.88558 | 34940 ft | 489 kts | 108° |
| 2026-05-09 04:02 | 42.98256 | -113.84138 | 35198 ft | 490 kts | 108° |
| 2026-05-09 04:02 | 42.97314 | -113.79672 | 35464 ft | 490 kts | 108° |
| 2026-05-09 04:03 | 42.96370 | -113.75206 | 35727 ft | 490 kts | 108° |
| 2026-05-09 04:03 | 42.95428 | -113.70733 | 35972 ft | 490 kts | 108° |
| 2026-05-09 04:03 | 42.94485 | -113.66255 | 36217 ft | 491 kts | 108° |
| 2026-05-09 04:03 | 42.93539 | -113.61783 | 36450 ft | 491 kts | 108° |
| 2026-05-09 04:04 | 42.92588 | -113.57313 | 36670 ft | 491 kts | 108° |
| 2026-05-09 04:04 | 42.91630 | -113.52837 | 36868 ft | 492 kts | 108° |
| 2026-05-09 04:04 | 42.89689 | -113.43804 | 36931 ft | 501 kts | 108° |
| 2026-05-09 04:05 | 42.87723 | -113.34639 | 36932 ft | 504 kts | 108° |
| 2026-05-09 04:05 | 42.85748 | -113.25456 | 36934 ft | 505 kts | 108° |
| 2026-05-09 04:06 | 42.83755 | -113.16260 | 36934 ft | 505 kts | 108° |
| 2026-05-09 04:06 | 42.81762 | -113.07097 | 36944 ft | 505 kts | 108° |
| 2026-05-09 04:07 | 42.79769 | -112.97998 | 36929 ft | 505 kts | 108° |
| 2026-05-09 04:07 | 42.77759 | -112.88850 | 36952 ft | 505 kts | 108° |
| 2026-05-09 04:08 | 42.75642 | -112.79735 | 36954 ft | 506 kts | 111° |
| 2026-05-09 04:08 | 42.73119 | -112.70725 | 36960 ft | 513 kts | 114° |
| 2026-05-09 04:09 | 42.70404 | -112.61701 | 36947 ft | 517 kts | 114° |
| 2026-05-09 04:09 | 42.67724 | -112.52593 | 36949 ft | 519 kts | 114° |
| 2026-05-09 04:10 | 42.65113 | -112.43442 | 36955 ft | 519 kts | 113° |
| 2026-05-09 04:10 | 42.62516 | -112.34316 | 36972 ft | 517 kts | 113° |
| 2026-05-09 04:11 | 42.59895 | -112.25227 | 36983 ft | 517 kts | 114° |
| 2026-05-09 04:11 | 42.57254 | -112.16156 | 36994 ft | 517 kts | 114° |
| 2026-05-09 04:12 | 42.54603 | -112.07092 | 37001 ft | 516 kts | 114° |
| 2026-05-09 04:12 | 42.51973 | -111.98106 | 37007 ft | 515 kts | 114° |
| 2026-05-09 04:13 | 42.49332 | -111.89101 | 37008 ft | 513 kts | 114° |
| 2026-05-09 04:13 | 42.46689 | -111.80131 | 36979 ft | 512 kts | 114° |
| 2026-05-09 04:14 | 42.44048 | -111.71192 | 37013 ft | 510 kts | 115° |
| 2026-05-09 04:14 | 42.41406 | -111.62292 | 37016 ft | 509 kts | 115° |
| 2026-05-09 04:15 | 42.38770 | -111.53432 | 37016 ft | 507 kts | 115° |
| 2026-05-09 04:15 | 42.36125 | -111.44600 | 36992 ft | 506 kts | 115° |
| 2026-05-09 04:16 | 42.33480 | -111.35781 | 37007 ft | 505 kts | 115° |
| 2026-05-09 04:16 | 42.30843 | -111.26995 | 37004 ft | 504 kts | 115° |
| 2026-05-09 04:17 | 42.28192 | -111.18225 | 36998 ft | 504 kts | 115° |
| 2026-05-09 04:17 | 42.25538 | -111.09467 | 37006 ft | 504 kts | 115° |
| 2026-05-09 04:18 | 42.22883 | -111.00709 | 36980 ft | 505 kts | 114° |
| 2026-05-09 04:18 | 42.20213 | -110.91947 | 36982 ft | 505 kts | 115° |
| 2026-05-09 04:19 | 42.17530 | -110.83186 | 36986 ft | 506 kts | 115° |
| 2026-05-09 04:19 | 42.14843 | -110.74427 | 36988 ft | 505 kts | 114° |
| 2026-05-09 04:20 | 42.12144 | -110.65674 | 36978 ft | 505 kts | 114° |
| 2026-05-09 04:20 | 42.09440 | -110.56932 | 37048 ft | 506 kts | 114° |
| 2026-05-09 04:21 | 42.06734 | -110.48187 | 37068 ft | 506 kts | 114° |
| 2026-05-09 04:22 | 42.02667 | -110.35107 | 37068 ft | 509 kts | 115° |
| 2026-05-09 04:22 | 41.99930 | -110.26331 | 37017 ft | 509 kts | 115° |
| 2026-05-09 04:23 | 41.97177 | -110.17543 | 36990 ft | 510 kts | 115° |
| 2026-05-09 04:23 | 41.94415 | -110.08779 | 36973 ft | 509 kts | 115° |
| 2026-05-09 04:24 | 41.91647 | -110.00016 | 36966 ft | 509 kts | 115° |
| 2026-05-09 04:24 | 41.88879 | -109.91273 | 36970 ft | 509 kts | 115° |
| 2026-05-09 04:25 | 41.86107 | -109.82540 | 36960 ft | 508 kts | 115° |
| 2026-05-09 04:25 | 41.83335 | -109.73833 | 36970 ft | 507 kts | 114° |
| 2026-05-09 04:26 | 41.80554 | -109.65120 | 36974 ft | 507 kts | 115° |
| 2026-05-09 04:26 | 41.77770 | -109.56451 | 36977 ft | 506 kts | 115° |
| 2026-05-09 04:27 | 41.74978 | -109.47800 | 36982 ft | 506 kts | 115° |
| 2026-05-09 04:27 | 41.72206 | -109.39214 | 37024 ft | 506 kts | 114° |
| 2026-05-09 04:28 | 41.69403 | -109.30559 | 37073 ft | 507 kts | 114° |
| 2026-05-09 04:28 | 41.66594 | -109.21913 | 37119 ft | 507 kts | 114° |
| 2026-05-09 04:29 | 41.63780 | -109.13263 | 37150 ft | 507 kts | 114° |
| 2026-05-09 04:29 | 41.60952 | -109.04611 | 37146 ft | 508 kts | 114° |
| 2026-05-09 04:30 | 41.58111 | -108.95965 | 37144 ft | 509 kts | 114° |
| 2026-05-09 04:30 | 41.55742 | -108.88763 | 37116 ft | 510 kts | 114° |
| 2026-05-09 04:31 | 41.52405 | -108.78638 | 37066 ft | 510 kts | 114° |
| 2026-05-09 04:31 | 41.49541 | -108.69975 | 36973 ft | 511 kts | 114° |
| 2026-05-09 04:32 | 41.46668 | -108.61297 | 36965 ft | 512 kts | 114° |
| 2026-05-09 04:32 | 41.43771 | -108.52619 | 36963 ft | 512 kts | 114° |
| 2026-05-09 04:33 | 41.40878 | -108.44005 | 36966 ft | 513 kts | 114° |
| 2026-05-09 04:33 | 41.37968 | -108.35337 | 36947 ft | 513 kts | 113° |
| 2026-05-09 04:34 | 41.35693 | -108.26338 | 36954 ft | 513 kts | 108° |
| 2026-05-09 04:34 | 41.33498 | -108.17307 | 36956 ft | 513 kts | 108° |
| 2026-05-09 04:35 | 41.31271 | -108.08273 | 36958 ft | 514 kts | 108° |
| 2026-05-09 04:35 | 41.29045 | -107.99244 | 36955 ft | 514 kts | 108° |
| 2026-05-09 04:36 | 41.26819 | -107.90212 | 36962 ft | 514 kts | 108° |
| 2026-05-09 04:36 | 41.24583 | -107.81188 | 36984 ft | 514 kts | 108° |
| 2026-05-09 04:37 | 41.22336 | -107.72171 | 37027 ft | 514 kts | 108° |
| 2026-05-09 04:37 | 41.20461 | -107.64675 | 37075 ft | 514 kts | 108° |
| 2026-05-09 04:38 | 41.18202 | -107.55678 | 37118 ft | 513 kts | 108° |
| 2026-05-09 04:38 | 41.15581 | -107.45240 | 37140 ft | 513 kts | 108° |
| 2026-05-09 04:39 | 41.13689 | -107.37718 | 37136 ft | 513 kts | 108° |
| 2026-05-09 04:39 | 41.11410 | -107.28752 | 37107 ft | 513 kts | 108° |
| 2026-05-09 04:40 | 41.09133 | -107.19848 | 37061 ft | 512 kts | 108° |
| 2026-05-09 04:40 | 41.06853 | -107.10916 | 37033 ft | 512 kts | 108° |
| 2026-05-09 04:41 | 41.04571 | -107.01982 | 37004 ft | 511 kts | 108° |
| 2026-05-09 04:41 | 41.02275 | -106.93066 | 36994 ft | 512 kts | 108° |
| 2026-05-09 04:42 | 40.99974 | -106.84142 | 36992 ft | 511 kts | 108° |
| 2026-05-09 04:42 | 40.97665 | -106.75236 | 36990 ft | 512 kts | 108° |
| 2026-05-09 04:43 | 40.95351 | -106.66343 | 36997 ft | 511 kts | 108° |
| 2026-05-09 04:43 | 40.93034 | -106.57469 | 36991 ft | 510 kts | 108° |
| 2026-05-09 04:44 | 40.90708 | -106.48604 | 36988 ft | 510 kts | 108° |
| 2026-05-09 04:44 | 40.88388 | -106.39738 | 36987 ft | 510 kts | 108° |
| 2026-05-09 04:45 | 40.86076 | -106.30944 | 36768 ft | 510 kts | 108° |
| 2026-05-09 04:45 | 40.84901 | -106.26527 | 36036 ft | 510 kts | 109° |
| 2026-05-09 04:45 | 40.83494 | -106.22234 | 35367 ft | 508 kts | 115° |
| 2026-05-09 04:45 | 40.81995 | -106.18036 | 34758 ft | 504 kts | 115° |
| 2026-05-09 04:46 | 40.80509 | -106.13853 | 34093 ft | 503 kts | 115° |
| 2026-05-09 04:46 | 40.79028 | -106.09672 | 33301 ft | 502 kts | 115° |
| 2026-05-09 04:46 | 40.77555 | -106.05508 | 32035 ft | 501 kts | 115° |
| 2026-05-09 04:46 | 40.76087 | -106.01370 | 31071 ft | 495 kts | 115° |
| 2026-05-09 04:47 | 40.74636 | -105.97296 | 30133 ft | 488 kts | 115° |
| 2026-05-09 04:47 | 40.73681 | -105.94619 | 29433 ft | 485 kts | 115° |
| 2026-05-09 04:47 | 40.71774 | -105.89289 | 28040 ft | 476 kts | 115° |
| 2026-05-09 04:47 | 40.70371 | -105.85378 | 27023 ft | 469 kts | 115° |
| 2026-05-09 04:48 | 40.68982 | -105.81520 | 26114 ft | 463 kts | 115° |
| 2026-05-09 04:48 | 40.67612 | -105.77720 | 25192 ft | 456 kts | 114° |
| 2026-05-09 04:48 | 40.66262 | -105.73976 | 24389 ft | 450 kts | 114° |
| 2026-05-09 04:48 | 40.64928 | -105.70275 | 23630 ft | 447 kts | 114° |
| 2026-05-09 04:49 | 40.63597 | -105.66582 | 23174 ft | 444 kts | 114° |
| 2026-05-09 04:49 | 40.62286 | -105.62942 | 22481 ft | 436 kts | 115° |
| 2026-05-09 04:49 | 40.61008 | -105.59408 | 21662 ft | 430 kts | 115° |
| 2026-05-09 04:49 | 40.59729 | -105.55884 | 20834 ft | 423 kts | 115° |
| 2026-05-09 04:50 | 40.58475 | -105.52436 | 20282 ft | 410 kts | 115° |
| 2026-05-09 04:50 | 40.57268 | -105.49121 | 19914 ft | 392 kts | 115° |
| 2026-05-09 04:50 | 40.56118 | -105.45963 | 19671 ft | 376 kts | 115° |
| 2026-05-09 04:50 | 40.54994 | -105.42881 | 19440 ft | 372 kts | 115° |
| 2026-05-09 04:51 | 40.53876 | -105.39828 | 19224 ft | 369 kts | 116° |
| 2026-05-09 04:51 | 40.52765 | -105.36794 | 18988 ft | 368 kts | 115° |
| 2026-05-09 04:51 | 40.51658 | -105.33768 | 18469 ft | 368 kts | 115° |
| 2026-05-09 04:51 | 40.50547 | -105.30722 | 18100 ft | 367 kts | 115° |
| 2026-05-09 04:52 | 40.49456 | -105.27729 | 17862 ft | 361 kts | 116° |
| 2026-05-09 04:52 | 40.48369 | -105.24760 | 17392 ft | 360 kts | 116° |
| 2026-05-09 04:52 | 40.47296 | -105.21828 | 17221 ft | 351 kts | 116° |
| 2026-05-09 04:52 | 40.46256 | -105.18979 | 17088 ft | 342 kts | 115° |
| 2026-05-09 04:53 | 40.45452 | -105.16125 | 16956 ft | 324 kts | 106° |
| 2026-05-09 04:53 | 40.44805 | -105.13368 | 16761 ft | 309 kts | 107° |
| 2026-05-09 04:53 | 40.44173 | -105.10698 | 16348 ft | 304 kts | 107° |
| 2026-05-09 04:53 | 40.43549 | -105.08062 | 15879 ft | 302 kts | 106° |
| 2026-05-09 04:54 | 40.42928 | -105.05442 | 15416 ft | 299 kts | 106° |
| 2026-05-09 04:54 | 40.42308 | -105.02844 | 14987 ft | 298 kts | 106° |
| 2026-05-09 04:54 | 40.41688 | -105.00267 | 14917 ft | 297 kts | 107° |
| 2026-05-09 04:54 | 40.41064 | -104.97683 | 14776 ft | 297 kts | 107° |
| 2026-05-09 04:55 | 40.40440 | -104.95090 | 14623 ft | 298 kts | 106° |
| 2026-05-09 04:55 | 40.39819 | -104.92505 | 14417 ft | 296 kts | 107° |
| 2026-05-09 04:55 | 40.39201 | -104.89938 | 14186 ft | 294 kts | 107° |
| 2026-05-09 04:55 | 40.38597 | -104.87417 | 13959 ft | 293 kts | 107° |
| 2026-05-09 04:56 | 40.37992 | -104.84874 | 13708 ft | 291 kts | 107° |
| 2026-05-09 04:56 | 40.37391 | -104.82344 | 13460 ft | 290 kts | 107° |
| 2026-05-09 04:56 | 40.36796 | -104.79833 | 13206 ft | 288 kts | 107° |
| 2026-05-09 04:56 | 40.36194 | -104.77340 | 12983 ft | 285 kts | 111° |
| 2026-05-09 04:57 | 40.35277 | -104.75053 | 12970 ft | 283 kts | 128° |
| 2026-05-09 04:57 | 40.33949 | -104.73150 | 12717 ft | 284 kts | 144° |
| 2026-05-09 04:57 | 40.32369 | -104.71590 | 12241 ft | 282 kts | 147° |
| 2026-05-09 04:57 | 40.30811 | -104.70077 | 11880 ft | 276 kts | 147° |
| 2026-05-09 04:58 | 40.29197 | -104.68834 | 11537 ft | 264 kts | 163° |
| 2026-05-09 04:58 | 40.27464 | -104.68276 | 11202 ft | 251 kts | 180° |
| 2026-05-09 04:58 | 40.25738 | -104.68220 | 10884 ft | 248 kts | 186° |
| 2026-05-09 04:58 | 40.24009 | -104.68269 | 10554 ft | 249 kts | 185° |
| 2026-05-09 04:59 | 40.22273 | -104.68301 | 10224 ft | 250 kts | 185° |
| 2026-05-09 04:59 | 40.20527 | -104.68321 | 9951 ft | 250 kts | 184° |
| 2026-05-09 04:59 | 40.18827 | -104.68338 | 9904 ft | 239 kts | 184° |
| 2026-05-09 04:59 | 40.17173 | -104.68358 | 9912 ft | 236 kts | 184° |
| 2026-05-09 05:00 | 40.15531 | -104.68378 | 9892 ft | 236 kts | 184° |
| 2026-05-09 05:00 | 40.13880 | -104.68398 | 9603 ft | 236 kts | 183° |
| 2026-05-09 05:00 | 40.12273 | -104.68416 | 9497 ft | 232 kts | 183° |
| 2026-05-09 05:00 | 40.10653 | -104.68435 | 9286 ft | 232 kts | 183° |
| 2026-05-09 05:01 | 40.09044 | -104.68454 | 8990 ft | 231 kts | 183° |
| 2026-05-09 05:01 | 40.07435 | -104.68473 | 8747 ft | 231 kts | 182° |
| 2026-05-09 05:01 | 40.05829 | -104.68492 | 8451 ft | 231 kts | 182° |
| 2026-05-09 05:01 | 40.04245 | -104.68510 | 8152 ft | 224 kts | 182° |
| 2026-05-09 05:02 | 40.02718 | -104.68528 | 7884 ft | 215 kts | 181° |
| 2026-05-09 05:02 | 40.01243 | -104.68545 | 7615 ft | 209 kts | 181° |
| 2026-05-09 05:02 | 39.99795 | -104.68563 | 7369 ft | 207 kts | 181° |
| 2026-05-09 05:02 | 39.98393 | -104.68579 | 7127 ft | 195 kts | 181° |
| 2026-05-09 05:03 | 39.97079 | -104.68595 | 6878 ft | 183 kts | 180° |
| 2026-05-09 05:03 | 39.95876 | -104.68609 | 6675 ft | 162 kts | 180° |
| 2026-05-09 05:03 | 39.94784 | -104.68622 | 6481 ft | 153 kts | 179° |
| 2026-05-09 05:03 | 39.93728 | -104.68638 | 6222 ft | 150 kts | 179° |
| 2026-05-09 05:04 | 39.92691 | -104.68658 | 5973 ft | 148 kts | 178° |
| 2026-05-09 05:04 | 39.91675 | -104.68669 | 5797 ft | 146 kts | 178° |
| 2026-05-09 05:04 | 39.90667 | -104.68681 | 5615 ft | 144 kts | 179° |
| 2026-05-09 05:04 | 39.89667 | -104.68687 | 5395 ft | 144 kts | 178° |
| 2026-05-09 05:05 | 39.88761 | -104.68692 | 5364 ft | 113 kts | 178° |
| 2026-05-09 05:05 | 39.88139 | -104.68696 | 5374 ft | 65 kts | 181° |
| 2026-05-09 05:05 | 39.87861 | -104.68697 | 5383 ft | 15 kts | 164° |
| 2026-05-09 05:05 | 39.87817 | -104.68677 | 5381 ft | 9 kts | 163° |
| 2026-05-09 05:06 | 39.87758 | -104.68651 | 5384 ft | 11 kts | 159° |
| 2026-05-09 05:06 | 39.87677 | -104.68601 | 5381 ft | 14 kts | 150° |
| 2026-05-09 05:06 | 39.87586 | -104.68540 | 5383 ft | 15 kts | 155° |
| 2026-05-09 05:06 | 39.87485 | -104.68490 | 5382 ft | 16 kts | 175° |
| 2026-05-09 05:07 | 39.87365 | -104.68494 | 5377 ft | 19 kts | 181° |
| 2026-05-09 05:07 | 39.87233 | -104.68497 | 5381 ft | 19 kts | 181° |
| 2026-05-09 05:07 | 39.87104 | -104.68499 | 5383 ft | 18 kts | 180° |
| 2026-05-09 05:07 | 39.86976 | -104.68499 | 5384 ft | 18 kts | 180° |
| 2026-05-09 05:08 | 39.86852 | -104.68504 | 5388 ft | 17 kts | 180° |
| 2026-05-09 05:08 | 39.86744 | -104.68501 | 5393 ft | 15 kts | 179° |
| 2026-05-09 05:08 | 39.86645 | -104.68504 | 5395 ft | 14 kts | 182° |
| 2026-05-09 05:08 | 39.86544 | -104.68509 | 5390 ft | 15 kts | 182° |
| 2026-05-09 05:09 | 39.86445 | -104.68513 | 5395 ft | 14 kts | 182° |
| 2026-05-09 05:09 | 39.86351 | -104.68509 | 5397 ft | 14 kts | 176° |
| 2026-05-09 05:09 | 39.86244 | -104.68505 | 5393 ft | 17 kts | 182° |
| 2026-05-09 05:09 | 39.86139 | -104.68494 | 5392 ft | 10 kts | 128° |
| 2026-05-09 05:10 | 39.86141 | -104.68404 | 5393 ft | 10 kts | 85° |
| 2026-05-09 05:10 | 39.86142 | -104.68301 | 5391 ft | 13 kts | 94° |
| 2026-05-09 05:10 | 39.86136 | -104.68166 | 5387 ft | 17 kts | 92° |
| 2026-05-09 05:10 | 39.86134 | -104.67992 | 5383 ft | 21 kts | 91° |
| 2026-05-09 05:11 | 39.86134 | -104.67793 | 5378 ft | 23 kts | 88° |
| 2026-05-09 05:11 | 39.86137 | -104.67576 | 5374 ft | 25 kts | 89° |
| 2026-05-09 05:11 | 39.86138 | -104.67354 | 5374 ft | 22 kts | 90° |
| 2026-05-09 05:11 | 39.86092 | -104.67285 | 5375 ft | 10 kts | 186° |
| 2026-05-09 05:12 | 39.86022 | -104.67295 | 5377 ft | 10 kts | 185° |
| 2026-05-09 05:12 | 39.85961 | -104.67297 | 5379 ft | 4 kts | 176° |
| 2026-05-09 05:12 | 39.85932 | -104.67297 | 5378 ft | 1 kts | 181° |
| 2026-05-09 05:12 | 39.85931 | -104.67297 | 5378 ft | 0 kts | 181° |
| 2026-05-09 05:13 | 39.85926 | -104.67297 | 5378 ft | 3 kts | 181° |